Aktuální počasí v Česku a ve světě - METAR

Seznam meteostanic umístěných nejčasteji na letišti v ČR a ve světě

Vyhledat místa podle abecedy:
A B C D E F G H I J K L M N O P Q R S T U V W X Y Z

Filtrovat:

ID stanice:
a/nebo
Název místa (fulltext):
 
Místo (ID)Naposledy načteno 
Šerák (Serak) 06.08.2020 16:00 UTC Zobrazit data
Místo: Šerák
Teplota: 14 °C (pocitová: 9.8 °C)
Vítr: 7 m/s z(e) 100°
Počasí: skorojasno
Dohlednost: 15 km
Zákl. oblačnosti: 1/8 60 m
Vlhkost: 94%
Svratouch (Svratouch) 06.08.2020 16:00 UTC Zobrazit data
Místo: Svratouch
Teplota: 22 °C (pocitová: 22.3 °C)
Vítr: 2 m/s z(e) 0°
Počasí: skoro zataženo
Dohlednost: 28 km
Zákl. oblačnosti: 6/8 810 m
Vlhkost: 65%
Saipan Island (PGSN) 06.08.2020 15:54 UTC Zobrazit METAR
PGSN 061554Z 10007KT 10SM CLR 28/25 A2986 RMK AO2 SLP130 T02830250
Salzburg (LOWS) 06.08.2020 15:50 UTC Zobrazit METAR
LOWS 061550Z 03008KT 9999 FEW040 25/16 Q1020 NOSIG
Samara (UWWW) Zatím nenačteno  
San Andres Island (SKSP) 06.08.2020 16:00 UTC Zobrazit METAR
SKSP 061600Z 08010KT 040V130 9999 FEW012 OVC070 28/26 A2989
San Jose (MRPV) 06.08.2020 16:00 UTC Zobrazit METAR
MRPV 061600Z 30003KT CAVOK 25/17 A3003 NOSIG
San Juan (TJSJ) 06.08.2020 15:56 UTC Zobrazit METAR
TJSJ 061556Z 06016KT 10SM FEW030 32/23 A3001 RMK AO2 SLP161 VCSH S-SW T03170228
San Salvador (MSLP) 06.08.2020 15:50 UTC Zobrazit METAR
MSLP 061550Z 11004KT 070V140 9999 FEW037 29/24 Q1011 A2987 NOSIG
Sanaa (OYSN) 08.02.2017 13:00 UTC Zobrazit METAR
OYSN 081300Z 03008KT 9999 FEW030 25/M05 Q1022
Santiago (SCEL) 06.08.2020 16:00 UTC Zobrazit METAR
SCEL 061600Z VRB02KT CAVOK 14/09 Q1019 NOSIG
Santiago (LEST) 06.08.2020 16:00 UTC Zobrazit METAR
LEST 061600Z 36009KT 320V040 9999 FEW045 31/19 Q1013 NOSIG
Santo Domingo (MDHE) 08.04.2012 12:00 UTC  
Santorini (LGSR) 06.08.2020 15:50 UTC Zobrazit METAR
LGSR 061550Z 35005KT CAVOK 29/23 Q1009
Sao Tome (FPST) 06.08.2020 13:00 UTC Zobrazit METAR
FPST 061300Z 16006KT 9999 SCT020 26/21 Q1015 NOSIG
Sarajevo (LQSA) 06.08.2020 16:00 UTC Zobrazit METAR
LQSA 061600Z 24002KT 9999 BKN045 20/17 Q1017 NOSIG
Saratov (UWSS) 06.03.2017 17:00 UTC Zobrazit METAR
UWSS 061700Z CAVOK 04/00 Q1024 R12/190055 NOSIG RMK QFE756
Sarmellek (LHSM) 06.08.2020 15:45 UTC Zobrazit METAR
LHSM 061545Z AUTO 36005KT 320V040 9999 FEW034 BKN053 26/19 Q1018 NOSIG
Seinajoki (EFSI) 06.08.2020 15:50 UTC Zobrazit METAR
EFSI 061550Z AUTO 22005KT 160V280 9999 SCT047 19/15 Q1020
Seoul/Incheon (RKSI) 06.08.2020 16:00 UTC Zobrazit METAR
RKSI 061600Z 20004KT 9999 SCT006 BKN200 22/20 Q1008 NOSIG
Seville (LEZL) 06.08.2020 16:00 UTC Zobrazit METAR
LEZL 061600Z 27008KT 230V320 CAVOK 39/13 Q1009 NOSIG
Seychelles (FSIA) 06.08.2020 16:00 UTC Zobrazit METAR
FSIA 061600Z 16009KT 120V210 9999 FEW023 25/20 Q1011 NOSIG
Shymkent (UAII) Zatím nenačteno  
Siauliai (EYSA) 06.08.2020 15:50 UTC Zobrazit METAR
EYSA 061550Z 25003KT 210V270 CAVOK 26/13 Q1026 BLU NOSIG
Sibiu (LRSB) 06.08.2020 16:00 UTC Zobrazit METAR
LRSB 061600Z 07009KT CAVOK 28/10 Q1018
Simferopol' (UKFF) Zatím nenačteno  
Singapore (WSSS) 06.08.2020 16:00 UTC Zobrazit METAR
WSSS 061600Z 16006KT 140V240 9999 FEW018 BKN300 28/25 Q1009 NOSIG
Skopje (LWSK) 06.08.2020 16:00 UTC Zobrazit METAR
LWSK 061600Z 32002KT 9999 FEW007 SCT030 BKN070 18/18 Q1015 NOSIG
Soderhamn (ESNY) Zatím nenačteno  
Sofia (LBSF) 06.08.2020 16:00 UTC Zobrazit METAR
LBSF 061600Z 08010KT 9999 SCT078 26/13 Q1014 NOSIG
Sonderborg (EKSB) 06.08.2020 10:50 UTC Zobrazit METAR
EKSB 061050Z 12007KT CAVOK 27/16 Q1020
Split (LDSP) 06.08.2020 16:00 UTC Zobrazit METAR
LDSP 061600Z 04013KT 010V070 9999 FEW065 28/13 Q1012 NOSIG
St. Denis (FMEE) 06.08.2020 16:00 UTC Zobrazit METAR
FMEE 061600Z AUTO 14009KT 9999 OVC054 21/13 Q1020 NOSIG
St. Georges (TGPY) 06.08.2020 16:00 UTC Zobrazit METAR
TGPY 061600Z 09015KT 9999 SCT018 30/25 Q1014 NOSIG
St. Johns (TAPA) 06.08.2020 16:00 UTC Zobrazit METAR
TAPA 061600Z 08011KT 9999 SCT019 30/23 Q1016 NOSIG
St. Petersburg (ULLI) Zatím nenačteno  
St. Pierre Island (LFVP) 05.08.2020 20:00 UTC Zobrazit METAR
LFVP 052000Z 17007KT 9999 OVC013 16/14 Q1020
Stavanger (ENZV) 06.08.2020 15:50 UTC Zobrazit METAR
ENZV 061550Z 18012KT 9999 FEW045 23/14 Q1018 NOSIG
Stockholm (ESSA) 06.08.2020 15:50 UTC Zobrazit METAR
ESSA 061550Z 25010KT 9999 SCT029 21/16 Q1022 NOSIG
Strasbourg (LFST) 06.08.2020 16:00 UTC Zobrazit METAR
LFST 061600Z AUTO 31005KT 270V360 CAVOK 31/15 Q1018 NOSIG
Stuttgart (EDDS) 06.08.2020 15:50 UTC Zobrazit METAR
EDDS 061550Z 10007KT 070V140 CAVOK 28/13 Q1020 NOSIG
Reklama

Počasí na Váš email

Emaily jsou bez reklamy a bez spamu



Odhlásit newsletter





❤️ Podpořte nás

Napište o nás recenzi na Google
Ohodnoťte nás na Firmy.cz

Pošlete nám finanční podporu - firma nedostala žádné dotace ani podporu z Coronaviru, zato letos platíme vyšší daně.
Další české internetové stránky (nejen) o počasí najdete v katalogu TOPlist - weby o počasí nebo vyhledejte na internetu, co jste tu na 🌞 Slunečnu ⛅ zatím nenašli:
⭐ Přidat Slunečno.cz do oblíbených | 🏠 Nastavit Slunečno.cz jako HOMEPAGE

⬆️ Posunout stránku nahoru ⬆️
Reklama